sensor_id;sensor_type;location;lat;lon;timestamp;pressure;altitude;pressure_sealevel;temperature;humidity
69402;BME280;56589;51.992;5.924;2023-04-03T00:01:23;102449.44;;;2.76;65.30
69402;BME280;56589;51.992;5.924;2023-04-03T00:03:49;102440.78;;;2.74;65.52
69402;BME280;56589;51.992;5.924;2023-04-03T00:06:15;102452.06;;;2.71;65.31
69402;BME280;56589;51.992;5.924;2023-04-03T00:08:43;102448.63;;;2.69;65.47
69402;BME280;56589;51.992;5.924;2023-04-03T00:11:09;102453.81;;;2.66;65.76
69402;BME280;56589;51.992;5.924;2023-04-03T00:13:36;102455.53;;;2.66;65.75
69402;BME280;56589;51.992;5.924;2023-04-03T00:16:04;102454.69;;;2.65;65.58
69402;BME280;56589;51.992;5.924;2023-04-03T00:18:31;102456.44;;;2.63;65.61
69402;BME280;56589;51.992;5.924;2023-04-03T00:20:57;102452.13;;;2.62;65.75
69402;BME280;56589;51.992;5.924;2023-04-03T00:23:25;102453.84;;;2.63;65.76
69402;BME280;56589;51.992;5.924;2023-04-03T00:25:54;102454.69;;;2.64;66.17
69402;BME280;56589;51.992;5.924;2023-04-03T00:28:20;102462.47;;;2.62;65.89
69402;BME280;56589;51.992;5.924;2023-04-03T00:30:46;102459.00;;;2.62;65.74
69402;BME280;56589;51.992;5.924;2023-04-03T00:33:13;102462.47;;;2.61;66.31
69402;BME280;56589;51.992;5.924;2023-04-03T00:35:39;102453.84;;;2.59;66.40
69402;BME280;56589;51.992;5.924;2023-04-03T00:38:05;102461.63;;;2.59;66.20
69402;BME280;56589;51.992;5.924;2023-04-03T00:40:34;102459.91;;;2.58;66.60
69402;BME280;56589;51.992;5.924;2023-04-03T00:43:11;102459.91;;;2.58;66.61
69402;BME280;56589;51.992;5.924;2023-04-03T00:45:40;102460.75;;;2.58;66.44
69402;BME280;56589;51.992;5.924;2023-04-03T00:48:09;102461.63;;;2.56;66.64
69402;BME280;56589;51.992;5.924;2023-04-03T00:50:40;102461.63;;;2.56;67.01
69402;BME280;56589;51.992;5.924;2023-04-03T00:53:11;102468.56;;;2.57;66.93
69402;BME280;56589;51.992;5.924;2023-04-03T00:55:41;102474.59;;;2.57;66.88
69402;BME280;56589;51.992;5.924;2023-04-03T00:58:12;102477.19;;;2.57;66.94
69402;BME280;56589;51.992;5.924;2023-04-03T01:00:43;102474.56;;;2.56;67.06
69402;BME280;56589;51.992;5.924;2023-04-03T01:03:15;102474.56;;;2.56;67.33
69402;BME280;56589;51.992;5.924;2023-04-03T01:05:41;102476.31;;;2.54;66.96
69402;BME280;56589;51.992;5.924;2023-04-03T01:08:06;102477.22;;;2.51;67.40
69402;BME280;56589;51.992;5.924;2023-04-03T01:10:33;102476.34;;;2.49;67.44
69402;BME280;56589;51.992;5.924;2023-04-03T01:12:59;102482.41;;;2.46;67.36
69402;BME280;56589;51.992;5.924;2023-04-03T01:15:28;102483.28;;;2.45;67.59
69402;BME280;56589;51.992;5.924;2023-04-03T01:17:57;102491.91;;;2.46;67.88
69402;BME280;56589;51.992;5.924;2023-04-03T01:20:43;102483.28;;;2.44;67.95
69402;BME280;56589;51.992;5.924;2023-04-03T01:23:33;102481.53;;;2.43;67.70
69402;BME280;56589;51.992;5.924;2023-04-03T01:26:10;102485.88;;;2.41;68.07
69402;BME280;56589;51.992;5.924;2023-04-03T01:28:37;102478.97;;;2.38;68.49
69402;BME280;56589;51.992;5.924;2023-04-03T01:31:13;102485.03;;;2.36;68.19
69402;BME280;56589;51.992;5.924;2023-04-03T01:33:48;102480.72;;;2.33;68.18
69402;BME280;56589;51.992;5.924;2023-04-03T01:36:17;102491.09;;;2.32;68.28
69402;BME280;56589;51.992;5.924;2023-04-03T01:38:45;102481.59;;;2.29;68.63
69402;BME280;56589;51.992;5.924;2023-04-03T01:41:11;102491.94;;;2.29;69.04
69402;BME280;56589;51.992;5.924;2023-04-03T01:43:37;102498.00;;;2.28;69.13
69402;BME280;56589;51.992;5.924;2023-04-03T01:46:03;102491.94;;;2.24;68.95
69402;BME280;56589;51.992;5.924;2023-04-03T01:48:29;102497.16;;;2.26;68.96
69402;BME280;56589;51.992;5.924;2023-04-03T01:50:57;102497.13;;;2.24;68.96
69402;BME280;56589;51.992;5.924;2023-04-03T01:53:23;102488.50;;;2.22;69.06
69402;BME280;56589;51.992;5.924;2023-04-03T01:55:49;102492.00;;;2.20;69.16
69402;BME280;56589;51.992;5.924;2023-04-03T01:58:15;102496.28;;;2.18;69.30
69402;BME280;56589;51.992;5.924;2023-04-03T02:00:40;102504.06;;;2.18;69.20
69402;BME280;56589;51.992;5.924;2023-04-03T02:03:06;102504.94;;;2.17;69.45
69402;BME280;56589;51.992;5.924;2023-04-03T02:05:32;102503.22;;;2.14;69.46
69402;BME280;56589;51.992;5.924;2023-04-03T02:08:01;102506.66;;;2.15;69.44
69402;BME280;56589;51.992;5.924;2023-04-03T02:10:27;102510.13;;;2.14;69.96
69402;BME280;56589;51.992;5.924;2023-04-03T02:12:52;102498.88;;;2.12;69.65
69402;BME280;56589;51.992;5.924;2023-04-03T02:15:18;102504.09;;;2.09;70.14
69402;BME280;56589;51.992;5.924;2023-04-03T02:17:44;102504.06;;;2.06;70.24
69402;BME280;56589;51.992;5.924;2023-04-03T02:20:10;102510.13;;;2.06;70.10
69402;BME280;56589;51.992;5.924;2023-04-03T02:22:36;102505.81;;;2.04;70.61
69402;BME280;56589;51.992;5.924;2023-04-03T02:25:05;102513.56;;;2.01;70.39
69402;BME280;56589;51.992;5.924;2023-04-03T02:27:33;102511.88;;;1.98;70.37
69402;BME280;56589;51.992;5.924;2023-04-03T02:29:59;102513.59;;;1.97;70.72
69402;BME280;56589;51.992;5.924;2023-04-03T02:32:24;102511.84;;;2.00;70.32
69402;BME280;56589;51.992;5.924;2023-04-03T02:34:50;102514.44;;;1.98;70.64
69402;BME280;56589;51.992;5.924;2023-04-03T02:37:16;102509.28;;;1.95;70.68
69402;BME280;56589;51.992;5.924;2023-04-03T02:39:42;102510.13;;;1.94;71.05
69402;BME280;56589;51.992;5.924;2023-04-03T02:42:11;102518.75;;;1.94;70.52
69402;BME280;56589;51.992;5.924;2023-04-03T02:44:37;102518.78;;;1.91;71.17
69402;BME280;56589;51.992;5.924;2023-04-03T02:47:02;102511.88;;;1.90;71.06
69402;BME280;56589;51.992;5.924;2023-04-03T02:49:28;102509.28;;;1.89;71.01
69402;BME280;56589;51.992;5.924;2023-04-03T02:51:54;102512.72;;;1.88;71.35
69402;BME280;56589;51.992;5.924;2023-04-03T02:54:20;102505.81;;;1.87;70.91
69402;BME280;56589;51.992;5.924;2023-04-03T02:56:46;102519.63;;;1.86;71.27
69402;BME280;56589;51.992;5.924;2023-04-03T02:59:17;102516.19;;;1.84;71.20
69402;BME280;56589;51.992;5.924;2023-04-03T03:01:43;102519.66;;;1.84;71.38
69402;BME280;56589;51.992;5.924;2023-04-03T03:04:09;102523.94;;;1.82;71.53
69402;BME280;56589;51.992;5.924;2023-04-03T03:06:37;102523.94;;;1.81;71.33
69402;BME280;56589;51.992;5.924;2023-04-03T03:09:03;102519.63;;;1.80;71.37
69402;BME280;56589;51.992;5.924;2023-04-03T03:11:29;102530.88;;;1.77;71.63
69402;BME280;56589;51.992;5.924;2023-04-03T03:13:55;102529.13;;;1.75;71.51
69402;BME280;56589;51.992;5.924;2023-04-03T03:16:24;102526.53;;;1.72;71.42
69402;BME280;56589;51.992;5.924;2023-04-03T03:18:49;102535.19;;;1.71;71.67
69402;BME280;56589;51.992;5.924;2023-04-03T03:21:15;102527.41;;;1.67;71.60
69402;BME280;56589;51.992;5.924;2023-04-03T03:23:41;102537.78;;;1.64;72.07
69402;BME280;56589;51.992;5.924;2023-04-03T03:26:09;102535.16;;;1.61;71.78
69402;BME280;56589;51.992;5.924;2023-04-03T03:28:36;102542.06;;;1.59;71.89
69402;BME280;56589;51.992;5.924;2023-04-03T03:31:04;102537.75;;;1.58;71.98
69402;BME280;56589;51.992;5.924;2023-04-03T03:33:36;102545.53;;;1.60;71.68
69402;BME280;56589;51.992;5.924;2023-04-03T03:36:02;102546.34;;;1.57;71.82
69402;BME280;56589;51.992;5.924;2023-04-03T03:38:29;102544.63;;;1.56;71.97
69402;BME280;56589;51.992;5.924;2023-04-03T03:40:55;102543.78;;;1.54;71.74
69402;BME280;56589;51.992;5.924;2023-04-03T03:43:20;102545.50;;;1.52;71.71
69402;BME280;56589;51.992;5.924;2023-04-03T03:45:49;102540.31;;;1.51;71.85
69402;BME280;56589;51.992;5.924;2023-04-03T03:48:16;102537.72;;;1.49;72.06
69402;BME280;56589;51.992;5.924;2023-04-03T03:50:44;102545.50;;;1.46;71.84
69402;BME280;56589;51.992;5.924;2023-04-03T03:53:10;102547.19;;;1.44;71.84
69402;BME280;56589;51.992;5.924;2023-04-03T03:55:36;102549.78;;;1.42;72.23
69402;BME280;56589;51.992;5.924;2023-04-03T03:58:02;102551.53;;;1.42;71.82
69402;BME280;56589;51.992;5.924;2023-04-03T04:00:28;102548.06;;;1.38;72.49
69402;BME280;56589;51.992;5.924;2023-04-03T04:02:53;102548.91;;;1.36;71.91
69402;BME280;56589;51.992;5.924;2023-04-03T04:05:19;102547.19;;;1.33;72.47
69402;BME280;56589;51.992;5.924;2023-04-03T04:07:48;102548.03;;;1.31;72.00
69402;BME280;56589;51.992;5.924;2023-04-03T04:10:14;102549.78;;;1.29;72.28
69402;BME280;56589;51.992;5.924;2023-04-03T04:12:41;102553.22;;;1.28;72.21
69402;BME280;56589;51.992;5.924;2023-04-03T04:15:09;102552.34;;;1.24;71.99
69402;BME280;56589;51.992;5.924;2023-04-03T04:17:35;102550.63;;;1.22;72.52
69402;BME280;56589;51.992;5.924;2023-04-03T04:20:01;102553.19;;;1.19;72.52
69402;BME280;56589;51.992;5.924;2023-04-03T04:22:28;102552.31;;;1.17;72.20
69402;BME280;56589;51.992;5.924;2023-04-03T04:24:56;102560.09;;;1.15;72.51
69402;BME280;56589;51.992;5.924;2023-04-03T04:27:22;102566.09;;;1.12;72.40
69402;BME280;56589;51.992;5.924;2023-04-03T04:29:48;102554.88;;;1.09;72.65
69402;BME280;56589;51.992;5.924;2023-04-03T04:32:14;102558.31;;;1.06;72.79
69402;BME280;56589;51.992;5.924;2023-04-03T04:34:40;102554.00;;;1.04;72.85
69402;BME280;56589;51.992;5.924;2023-04-03T04:37:06;102560.88;;;1.02;72.84
69402;BME280;56589;51.992;5.924;2023-04-03T04:39:31;102565.19;;;1.00;73.13
69402;BME280;56589;51.992;5.924;2023-04-03T04:42:00;102567.78;;;0.98;73.05
69402;BME280;56589;51.992;5.924;2023-04-03T04:44:26;102555.69;;;0.97;72.72
69402;BME280;56589;51.992;5.924;2023-04-03T04:46:51;102566.88;;;0.93;73.38
69402;BME280;56589;51.992;5.924;2023-04-03T04:49:17;102565.16;;;0.91;73.20
69402;BME280;56589;51.992;5.924;2023-04-03T04:51:43;102567.72;;;0.89;73.20
69402;BME280;56589;51.992;5.924;2023-04-03T04:54:09;102578.06;;;0.89;73.06
69402;BME280;56589;51.992;5.924;2023-04-03T04:56:35;102572.88;;;0.86;72.75
69402;BME280;56589;51.992;5.924;2023-04-03T04:59:04;102584.09;;;0.85;73.29
69402;BME280;56589;51.992;5.924;2023-04-03T05:01:30;102582.34;;;0.84;72.88
69402;BME280;56589;51.992;5.924;2023-04-03T05:03:55;102586.63;;;0.83;72.94
69402;BME280;56589;51.992;5.924;2023-04-03T05:06:21;102591.81;;;0.82;72.97
69402;BME280;56589;51.992;5.924;2023-04-03T05:08:47;102588.38;;;0.80;73.12
69402;BME280;56589;51.992;5.924;2023-04-03T05:11:13;102596.97;;;0.79;72.82
69402;BME280;56589;51.992;5.924;2023-04-03T05:13:39;102602.97;;;0.78;72.90
69402;BME280;56589;51.992;5.924;2023-04-03T05:16:07;102597.81;;;0.75;73.15
69402;BME280;56589;51.992;5.924;2023-04-03T05:18:33;102592.63;;;0.75;72.81
69402;BME280;56589;51.992;5.924;2023-04-03T05:20:59;102592.63;;;0.75;72.62
69402;BME280;56589;51.992;5.924;2023-04-03T05:23:25;102591.78;;;0.74;72.64
69402;BME280;56589;51.992;5.924;2023-04-03T05:25:50;102600.41;;;0.75;72.79
69402;BME280;56589;51.992;5.924;2023-04-03T05:28:18;102596.09;;;0.74;72.84
69402;BME280;56589;51.992;5.924;2023-04-03T05:30:44;102608.16;;;0.75;72.61
69402;BME280;56589;51.992;5.924;2023-04-03T05:33:13;102609.88;;;0.77;72.56
69402;BME280;56589;51.992;5.924;2023-04-03T05:35:39;102610.75;;;0.78;72.56
69402;BME280;56589;51.992;5.924;2023-04-03T05:38:05;102608.19;;;0.79;72.36
69402;BME280;56589;51.992;5.924;2023-04-03T05:40:30;102612.50;;;0.83;72.76
69402;BME280;56589;51.992;5.924;2023-04-03T05:42:56;102610.84;;;0.96;72.95
69402;BME280;56589;51.992;5.924;2023-04-03T05:45:22;102611.81;;;1.18;72.81
69402;BME280;56589;51.992;5.924;2023-04-03T05:47:48;102608.44;;;1.34;71.63
69402;BME280;56589;51.992;5.924;2023-04-03T05:50:16;102611.09;;;1.53;72.27
69402;BME280;56589;51.992;5.924;2023-04-03T05:52:45;102611.13;;;1.73;71.59
69402;BME280;56589;51.992;5.924;2023-04-03T05:55:14;102624.09;;;2.00;71.43
69402;BME280;56589;51.992;5.924;2023-04-03T05:57:40;102617.22;;;2.34;71.35
69402;BME280;56589;51.992;5.924;2023-04-03T06:00:10;102618.03;;;2.77;71.04
69402;BME280;56589;51.992;5.924;2023-04-03T06:02:41;102617.03;;;3.15;69.33
69402;BME280;56589;51.992;5.924;2023-04-03T06:05:08;102625.59;;;3.43;67.57
69402;BME280;56589;51.992;5.924;2023-04-03T06:07:37;102621.09;;;3.71;69.02
69402;BME280;56589;51.992;5.924;2023-04-03T06:10:04;102633.75;;;4.19;67.80
69402;BME280;56589;51.992;5.924;2023-04-03T06:12:31;102636.94;;;4.53;67.17
69402;BME280;56589;51.992;5.924;2023-04-03T06:14:57;102632.25;;;4.87;66.62
69402;BME280;56589;51.992;5.924;2023-04-03T06:17:23;102637.09;;;5.24;66.63
69402;BME280;56589;51.992;5.924;2023-04-03T06:19:49;102632.28;;;5.59;62.64
69402;BME280;56589;51.992;5.924;2023-04-03T06:22:15;102639.19;;;5.62;63.99
69402;BME280;56589;51.992;5.924;2023-04-03T06:24:43;102637.28;;;5.74;62.88
69402;BME280;56589;51.992;5.924;2023-04-03T06:27:10;102648.41;;;5.86;61.54
69402;BME280;56589;51.992;5.924;2023-04-03T06:29:36;102646.56;;;5.92;60.40
69402;BME280;56589;51.992;5.924;2023-04-03T06:32:02;102650.75;;;6.04;62.05
69402;BME280;56589;51.992;5.924;2023-04-03T06:34:28;102646.88;;;6.28;60.61
69402;BME280;56589;51.992;5.924;2023-04-03T06:36:53;102648.31;;;6.49;60.13
69402;BME280;56589;51.992;5.924;2023-04-03T06:39:20;102660.03;;;6.73;59.99
69402;BME280;56589;51.992;5.924;2023-04-03T06:41:49;102662.53;;;6.79;58.70
69402;BME280;56589;51.992;5.924;2023-04-03T06:44:15;102651.69;;;6.52;58.37
69402;BME280;56589;51.992;5.924;2023-04-03T06:46:42;102657.56;;;6.14;57.67
69402;BME280;56589;51.992;5.924;2023-04-03T06:49:09;102651.31;;;5.66;57.72
69402;BME280;56589;51.992;5.924;2023-04-03T06:51:35;102655.41;;;5.16;58.78
69402;BME280;56589;51.992;5.924;2023-04-03T06:54:03;102660.09;;;4.80;59.38
69402;BME280;56589;51.992;5.924;2023-04-03T06:56:30;102664.63;;;4.57;59.57
69402;BME280;56589;51.992;5.924;2023-04-03T06:58:59;102665.66;;;4.41;60.02
69402;BME280;56589;51.992;5.924;2023-04-03T07:01:26;102663.13;;;4.34;60.44
69402;BME280;56589;51.992;5.924;2023-04-03T07:03:53;102669.25;;;4.21;60.23
69402;BME280;56589;51.992;5.924;2023-04-03T07:06:20;102677.13;;;4.12;59.98
69402;BME280;56589;51.992;5.924;2023-04-03T07:08:47;102675.47;;;4.00;60.07
69402;BME280;56589;51.992;5.924;2023-04-03T07:11:13;102672.06;;;3.91;60.30
69402;BME280;56589;51.992;5.924;2023-04-03T07:13:39;102672.06;;;3.89;60.06
69402;BME280;56589;51.992;5.924;2023-04-03T07:16:08;102685.09;;;3.86;59.75
69402;BME280;56589;51.992;5.924;2023-04-03T07:18:35;102686.00;;;3.76;59.98
69402;BME280;56589;51.992;5.924;2023-04-03T07:21:02;102681.72;;;3.73;60.41
69402;BME280;56589;51.992;5.924;2023-04-03T07:23:29;102694.69;;;3.72;59.49
69402;BME280;56589;51.992;5.924;2023-04-03T07:25:55;102699.94;;;3.67;60.06
69402;BME280;56589;51.992;5.924;2023-04-03T07:28:22;102689.47;;;3.78;60.62
69402;BME280;56589;51.992;5.924;2023-04-03T07:30:49;102686.81;;;3.89;60.20
69402;BME280;56589;51.992;5.924;2023-04-03T07:33:20;102693.69;;;3.99;60.30
69402;BME280;56589;51.992;5.924;2023-04-03T07:35:47;102694.50;;;4.07;60.22
69402;BME280;56589;51.992;5.924;2023-04-03T07:38:13;102699.69;;;4.07;57.95
69402;BME280;56589;51.992;5.924;2023-04-03T07:40:39;102705.84;;;3.91;58.08
69402;BME280;56589;51.992;5.924;2023-04-03T07:43:10;102714.53;;;3.83;58.51
69402;BME280;56589;51.992;5.924;2023-04-03T07:45:36;102698.06;;;3.84;59.21
69402;BME280;56589;51.992;5.924;2023-04-03T07:48:02;102705.88;;;3.84;58.83
69402;BME280;56589;51.992;5.924;2023-04-03T07:50:31;102710.19;;;3.90;59.46
69402;BME280;56589;51.992;5.924;2023-04-03T07:52:57;102701.50;;;3.97;58.54
69402;BME280;56589;51.992;5.924;2023-04-03T07:55:23;102707.47;;;4.08;58.82
69402;BME280;56589;51.992;5.924;2023-04-03T07:57:49;102706.56;;;4.22;59.25
69402;BME280;56589;51.992;5.924;2023-04-03T08:00:15;102707.31;;;4.34;58.10
69402;BME280;56589;51.992;5.924;2023-04-03T08:02:42;102709.00;;;4.42;57.70
69402;BME280;56589;51.992;5.924;2023-04-03T08:05:08;102707.22;;;4.47;57.47
69402;BME280;56589;51.992;5.924;2023-04-03T08:07:37;102707.25;;;4.39;55.72
69402;BME280;56589;51.992;5.924;2023-04-03T08:10:04;102705.59;;;4.30;56.36
69402;BME280;56589;51.992;5.924;2023-04-03T08:12:30;102707.31;;;4.31;55.56
69402;BME280;56589;51.992;5.924;2023-04-03T08:14:56;102716.81;;;4.34;56.52
69402;BME280;56589;51.992;5.924;2023-04-03T08:17:22;102715.91;;;4.43;56.50
69402;BME280;56589;51.992;5.924;2023-04-03T08:19:48;102714.09;;;4.54;55.41
69402;BME280;56589;51.992;5.924;2023-04-03T08:22:13;102716.66;;;4.58;55.31
69402;BME280;56589;51.992;5.924;2023-04-03T08:24:42;102722.75;;;4.59;55.07
69402;BME280;56589;51.992;5.924;2023-04-03T08:27:08;102723.59;;;4.61;54.22
69402;BME280;56589;51.992;5.924;2023-04-03T08:29:34;102728.69;;;4.70;55.06
69402;BME280;56589;51.992;5.924;2023-04-03T08:31:59;102729.53;;;4.75;53.03
69402;BME280;56589;51.992;5.924;2023-04-03T08:34:25;102728.72;;;4.69;53.09
69402;BME280;56589;51.992;5.924;2023-04-03T08:36:51;102721.75;;;4.72;50.48
69402;BME280;56589;51.992;5.924;2023-04-03T08:39:17;102733.03;;;4.71;51.42
69402;BME280;56589;51.992;5.924;2023-04-03T08:41:46;102727.84;;;4.71;52.04
69402;BME280;56589;51.992;5.924;2023-04-03T08:44:18;102733.00;;;4.77;52.45
69402;BME280;56589;51.992;5.924;2023-04-03T08:47:02;102726.81;;;4.92;50.26
69402;BME280;56589;51.992;5.924;2023-04-03T08:49:40;102739.75;;;5.00;51.13
69402;BME280;56589;51.992;5.924;2023-04-03T08:52:10;102722.34;;;5.05;51.11
69402;BME280;56589;51.992;5.924;2023-04-03T08:54:48;102741.34;;;5.16;50.83
69402;BME280;56589;51.992;5.924;2023-04-03T08:57:26;102727.38;;;5.23;46.12
69402;BME280;56589;51.992;5.924;2023-04-03T08:59:55;102727.28;;;5.31;48.12
69402;BME280;56589;51.992;5.924;2023-04-03T09:02:29;102730.75;;;5.31;46.34
69402;BME280;56589;51.992;5.924;2023-04-03T09:04:58;102722.94;;;5.31;46.86
69402;BME280;56589;51.992;5.924;2023-04-03T09:07:33;102732.41;;;5.38;48.57
69402;BME280;56589;51.992;5.924;2023-04-03T09:10:05;102733.06;;;5.56;48.38
69402;BME280;56589;51.992;5.924;2023-04-03T09:12:41;102726.75;;;5.75;47.24
69402;BME280;56589;51.992;5.924;2023-04-03T09:15:19;102725.72;;;5.87;45.43
69402;BME280;56589;51.992;5.924;2023-04-03T09:17:56;102723.91;;;5.95;43.60
69402;BME280;56589;51.992;5.924;2023-04-03T09:20:37;102736.06;;;5.93;38.26
69402;BME280;56589;51.992;5.924;2023-04-03T09:23:17;102728.34;;;5.87;41.39
69402;BME280;56589;51.992;5.924;2023-04-03T09:25:47;102717.84;;;5.91;42.49
69402;BME280;56589;51.992;5.924;2023-04-03T09:28:18;102731.72;;;5.95;41.15
69402;BME280;56589;51.992;5.924;2023-04-03T09:30:44;102724.69;;;5.98;41.80
69402;BME280;56589;51.992;5.924;2023-04-03T09:33:11;102716.78;;;6.06;40.53
69402;BME280;56589;51.992;5.924;2023-04-03T09:35:40;102720.16;;;6.13;41.46
69402;BME280;56589;51.992;5.924;2023-04-03T09:38:19;102722.53;;;6.28;40.56
69402;BME280;56589;51.992;5.924;2023-04-03T09:40:47;102717.31;;;6.28;40.33
69402;BME280;56589;51.992;5.924;2023-04-03T09:43:27;102721.56;;;6.35;38.42
69402;BME280;56589;51.992;5.924;2023-04-03T09:45:55;102704.25;;;6.31;37.04
69402;BME280;56589;51.992;5.924;2023-04-03T09:48:50;102731.22;;;6.28;36.70
69402;BME280;56589;51.992;5.924;2023-04-03T09:51:17;102713.03;;;6.24;36.15
69402;BME280;56589;51.992;5.924;2023-04-03T09:53:44;102712.09;;;6.28;36.92
69402;BME280;56589;51.992;5.924;2023-04-03T09:56:19;102720.69;;;6.35;36.26
69402;BME280;56589;51.992;5.924;2023-04-03T09:59:02;102717.09;;;6.43;37.60
69402;BME280;56589;51.992;5.924;2023-04-03T10:01:34;102716.13;;;6.50;38.52
69402;BME280;56589;51.992;5.924;2023-04-03T10:04:09;102715.13;;;6.58;38.30
69402;BME280;56589;51.992;5.924;2023-04-03T10:06:38;102713.28;;;6.64;38.10
69402;BME280;56589;51.992;5.924;2023-04-03T10:09:13;102717.34;;;6.79;38.73
69402;BME280;56589;51.992;5.924;2023-04-03T10:11:57;102707.66;;;6.86;36.86
69402;BME280;56589;51.992;5.924;2023-04-03T10:14:28;102709.47;;;6.82;37.98
69402;BME280;56589;51.992;5.924;2023-04-03T10:17:02;102701.63;;;6.84;35.80
69402;BME280;56589;51.992;5.924;2023-04-03T10:19:41;102699.97;;;6.78;37.96
69402;BME280;56589;51.992;5.924;2023-04-03T10:22:18;102703.44;;;6.80;36.33
69402;BME280;56589;51.992;5.924;2023-04-03T10:24:52;102692.13;;;6.79;36.83
69402;BME280;56589;51.992;5.924;2023-04-03T10:27:35;102708.47;;;6.89;37.04
69402;BME280;56589;51.992;5.924;2023-04-03T10:30:21;102688.38;;;6.94;36.51
69402;BME280;56589;51.992;5.924;2023-04-03T10:33:11;102677.78;;;7.02;36.74
69402;BME280;56589;51.992;5.924;2023-04-03T10:35:57;102680.97;;;7.16;36.08
69402;BME280;56589;51.992;5.924;2023-04-03T10:38:38;102679.88;;;7.28;38.02
69402;BME280;56589;51.992;5.924;2023-04-03T10:41:17;102671.81;;;7.42;38.36
69402;BME280;56589;51.992;5.924;2023-04-03T10:44:01;102673.28;;;7.55;36.41
69402;BME280;56589;51.992;5.924;2023-04-03T10:46:44;102665.53;;;7.50;37.51
69402;BME280;56589;51.992;5.924;2023-04-03T10:49:25;102667.03;;;7.62;37.94
69402;BME280;56589;51.992;5.924;2023-04-03T10:52:09;102657.97;;;7.78;37.38
69402;BME280;56589;51.992;5.924;2023-04-03T10:54:41;102659.50;;;7.87;37.78
69402;BME280;56589;51.992;5.924;2023-04-03T10:57:14;102652.59;;;7.84;36.84
69402;BME280;56589;51.992;5.924;2023-04-03T10:59:43;102650.97;;;7.79;36.25
69402;BME280;56589;51.992;5.924;2023-04-03T11:02:23;102635.38;;;7.74;36.46
69402;BME280;56589;51.992;5.924;2023-04-03T11:04:56;102641.56;;;7.72;36.05
69402;BME280;56589;51.992;5.924;2023-04-03T11:07:28;102640.25;;;7.89;37.11
69402;BME280;56589;51.992;5.924;2023-04-03T11:10:04;102639.19;;;7.98;35.57
69402;BME280;56589;51.992;5.924;2023-04-03T11:12:44;102634.00;;;7.97;34.71
69402;BME280;56589;51.992;5.924;2023-04-03T11:15:16;102625.34;;;7.93;35.59
69402;BME280;56589;51.992;5.924;2023-04-03T11:17:51;102633.84;;;8.03;35.50
69402;BME280;56589;51.992;5.924;2023-04-03T11:20:23;102618.13;;;8.04;34.20
69402;BME280;56589;51.992;5.924;2023-04-03T11:22:58;102631.19;;;8.04;34.04
69402;BME280;56589;51.992;5.924;2023-04-03T11:25:30;102629.28;;;8.11;35.06
69402;BME280;56589;51.992;5.924;2023-04-03T11:28:01;102623.81;;;8.20;34.77
69402;BME280;56589;51.992;5.924;2023-04-03T11:30:31;102627.13;;;8.28;34.23
69402;BME280;56589;51.992;5.924;2023-04-03T11:33:31;102618.28;;;8.32;32.92
69402;BME280;56589;51.992;5.924;2023-04-03T11:36:11;102643.69;;;8.29;33.42
69402;BME280;56589;51.992;5.924;2023-04-03T11:38:46;102659.28;;;8.32;34.81
69402;BME280;56589;51.992;5.924;2023-04-03T11:41:15;102636.66;;;8.31;33.54
69402;BME280;56589;51.992;5.924;2023-04-03T11:43:43;102625.53;;;8.23;34.10
69402;BME280;56589;51.992;5.924;2023-04-03T11:46:22;102631.31;;;8.35;34.95
69402;BME280;56589;51.992;5.924;2023-04-03T11:48:51;102631.09;;;8.43;34.90
69402;BME280;56589;51.992;5.924;2023-04-03T11:54:44;102626.81;;;8.40;33.60
69402;BME280;56589;51.992;5.924;2023-04-03T12:03:31;102612.56;;;8.51;34.59
69402;BME280;56589;51.992;5.924;2023-04-03T12:10:00;102604.59;;;8.55;34.06
69402;BME280;56589;51.992;5.924;2023-04-03T12:12:39;102597.41;;;8.63;34.72
69402;BME280;56589;51.992;5.924;2023-04-03T12:15:44;102591.47;;;8.57;33.19
69402;BME280;56589;51.992;5.924;2023-04-03T12:18:40;102590.81;;;8.49;34.03
69402;BME280;56589;51.992;5.924;2023-04-03T12:21:08;102606.41;;;8.53;34.56
69402;BME280;56589;51.992;5.924;2023-04-03T12:24:04;102591.47;;;8.57;34.20
69402;BME280;56589;51.992;5.924;2023-04-03T12:27:05;102585.34;;;8.58;36.08
69402;BME280;56589;51.992;5.924;2023-04-03T12:29:46;102584.25;;;8.66;34.94
69402;BME280;56589;51.992;5.924;2023-04-03T12:32:24;102593.97;;;8.61;34.95
69402;BME280;56589;51.992;5.924;2023-04-03T12:35:14;102577.94;;;8.74;35.20
69402;BME280;56589;51.992;5.924;2023-04-03T12:38:00;102579.28;;;8.88;34.49
69402;BME280;56589;51.992;5.924;2023-04-03T12:40:54;102586.97;;;8.93;35.68
69402;BME280;56589;51.992;5.924;2023-04-03T12:43:41;102567.63;;;8.99;33.68
69402;BME280;56589;51.992;5.924;2023-04-03T12:46:17;102586.06;;;8.95;34.61
69402;BME280;56589;51.992;5.924;2023-04-03T12:48:50;102581.63;;;8.98;35.52
69402;BME280;56589;51.992;5.924;2023-04-03T12:51:20;102571.88;;;9.03;35.21
69402;BME280;56589;51.992;5.924;2023-04-03T12:53:57;102566.03;;;8.93;32.57
69402;BME280;56589;51.992;5.924;2023-04-03T12:56:31;102562.78;;;8.85;34.48
69402;BME280;56589;51.992;5.924;2023-04-03T12:59:14;102574.22;;;8.81;33.98
69402;BME280;56589;51.992;5.924;2023-04-03T13:01:41;102571.94;;;8.68;34.53
69402;BME280;56589;51.992;5.924;2023-04-03T13:04:10;102559.06;;;8.61;34.24
69402;BME280;56589;51.992;5.924;2023-04-03T13:06:39;102552.88;;;8.63;35.09
69402;BME280;56589;51.992;5.924;2023-04-03T13:09:18;102552.81;;;8.66;34.98
69402;BME280;56589;51.992;5.924;2023-04-03T13:11:49;102540.53;;;8.68;33.72
69402;BME280;56589;51.992;5.924;2023-04-03T13:14:20;102542.56;;;8.59;34.95
69402;BME280;56589;51.992;5.924;2023-04-03T13:16:54;102553.78;;;8.64;33.39
69402;BME280;56589;51.992;5.924;2023-04-03T13:19:23;102546.97;;;8.57;34.16
69402;BME280;56589;51.992;5.924;2023-04-03T13:21:52;102555.78;;;8.54;33.73
69402;BME280;56589;51.992;5.924;2023-04-03T13:24:24;102541.59;;;8.61;35.49
69402;BME280;56589;51.992;5.924;2023-04-03T13:26:53;102515.31;;;8.66;35.08
69402;BME280;56589;51.992;5.924;2023-04-03T13:29:22;102560.50;;;8.73;34.32